createdAt,value
2018-07-17T00:00:37.609Z,52.97
2018-07-17T00:03:08.284Z,53.04
2018-07-17T00:05:38.920Z,53.29
2018-07-17T00:08:09.597Z,53.58
2018-07-17T00:10:40.271Z,53.71
2018-07-17T00:13:10.935Z,53.96
2018-07-17T00:15:41.570Z,54.33
2018-07-17T00:18:12.255Z,54.02
2018-07-17T00:20:42.905Z,54.65
2018-07-17T00:23:13.590Z,54.48
2018-07-17T00:25:44.245Z,54.59
2018-07-17T00:28:14.859Z,53.96
2018-07-17T00:30:45.543Z,55.21
2018-07-17T00:33:16.217Z,55.73
2018-07-17T00:35:46.923Z,55.83
2018-07-17T00:38:17.613Z,56.32
2018-07-17T00:40:48.300Z,56.57
2018-07-17T00:43:19.005Z,57.13
2018-07-17T00:45:49.760Z,57.03
2018-07-17T00:48:20.423Z,57.17
2018-07-17T00:50:51.074Z,56.85
2018-07-17T00:53:21.766Z,56.78
2018-07-17T00:55:52.443Z,56.96
2018-07-17T00:58:23.120Z,57.08
2018-07-17T01:00:52.772Z,57.53
2018-07-17T01:03:28.662Z,57.30
2018-07-17T01:06:04.620Z,57.21
2018-07-17T01:08:40.594Z,57.58
2018-07-17T01:11:16.467Z,57.64
2018-07-17T01:13:55.410Z,57.77
2018-07-17T01:16:26.114Z,57.76
2018-07-17T01:18:56.840Z,58.14
2018-07-17T01:21:27.553Z,58.45
2018-07-17T01:23:58.794Z,57.87
2018-07-17T01:26:29.493Z,58.26
2018-07-17T01:29:00.128Z,58.31
2018-07-17T01:31:30.906Z,58.14
2018-07-17T01:34:01.552Z,58.13
2018-07-17T01:36:32.534Z,58.70
2018-07-17T01:39:03.233Z,58.87
2018-07-17T01:41:34.061Z,58.43
2018-07-17T01:44:04.744Z,58.76
2018-07-17T01:47:06.273Z,58.90
2018-07-17T01:49:36.915Z,58.99
2018-07-17T01:52:07.668Z,58.98
2018-07-17T01:54:38.306Z,59.21
2018-07-17T01:57:08.853Z,59.33
2018-07-17T01:59:39.731Z,59.39
2018-07-17T02:02:10.621Z,59.59
2018-07-17T02:04:41.402Z,59.41
2018-07-17T02:07:12.234Z,59.71
2018-07-17T02:09:42.888Z,59.98
2018-07-17T02:12:13.538Z,59.46
2018-07-17T02:14:44.183Z,59.60
2018-07-17T02:17:14.868Z,59.51
2018-07-17T02:19:45.552Z,59.45
2018-07-17T02:22:16.278Z,59.68
2018-07-17T02:24:47.043Z,59.54
2018-07-17T02:27:18.468Z,59.37
2018-07-17T02:29:49.182Z,59.28
2018-07-17T02:32:19.821Z,59.35
2018-07-17T02:34:50.595Z,59.58
2018-07-17T02:37:21.218Z,59.18
2018-07-17T02:39:51.859Z,59.53
2018-07-17T02:42:22.530Z,59.15
2018-07-17T02:44:53.167Z,59.54
2018-07-17T02:47:23.817Z,59.67
2018-07-17T02:49:54.474Z,59.63
2018-07-17T02:52:25.155Z,59.84
2018-07-17T02:54:55.764Z,59.99
2018-07-17T02:57:26.400Z,60.00
2018-07-17T02:59:57.029Z,60.07
2018-07-17T03:02:27.646Z,59.86
2018-07-17T03:04:58.307Z,60.20
2018-07-17T03:07:28.966Z,60.37
2018-07-17T03:09:59.666Z,60.81
2018-07-17T03:12:30.315Z,60.74
2018-07-17T03:15:00.941Z,61.27
2018-07-17T03:17:31.592Z,61.24
2018-07-17T03:20:02.296Z,60.78
2018-07-17T03:22:32.952Z,60.66
2018-07-17T03:25:03.654Z,60.59
2018-07-17T03:27:34.305Z,61.11
2018-07-17T03:30:05.657Z,60.47
2018-07-17T03:32:36.357Z,60.18
2018-07-17T03:35:07.186Z,60.20
2018-07-17T03:37:37.901Z,60.68
2018-07-17T03:40:08.634Z,60.42
2018-07-17T03:42:39.385Z,60.63
2018-07-17T03:45:10.077Z,60.70
2018-07-17T03:47:40.756Z,60.92
2018-07-17T03:50:11.409Z,61.19
2018-07-17T03:52:42.148Z,61.04
2018-07-17T03:55:12.767Z,61.12
2018-07-17T03:57:43.464Z,61.07
2018-07-17T04:00:14.115Z,61.40
2018-07-17T04:02:44.827Z,61.29
2018-07-17T04:05:15.477Z,61.37
2018-07-17T04:07:46.257Z,61.53
2018-07-17T04:10:16.923Z,60.64
2018-07-17T04:12:47.632Z,60.43
2018-07-17T04:15:18.393Z,60.43
2018-07-17T04:17:49.083Z,60.64
2018-07-17T04:20:19.735Z,60.53
2018-07-17T04:22:51.175Z,60.65
2018-07-17T04:25:21.944Z,60.44
2018-07-17T04:27:52.561Z,59.86
2018-07-17T04:30:23.263Z,59.95
2018-07-17T04:32:53.935Z,59.61
2018-07-17T04:35:24.742Z,59.76
2018-07-17T04:37:55.424Z,59.74
2018-07-17T04:40:26.135Z,59.61
2018-07-17T04:42:56.790Z,59.87
2018-07-17T04:45:27.444Z,59.58
2018-07-17T04:47:58.138Z,59.17
2018-07-17T04:50:28.832Z,59.45
2018-07-17T04:52:59.489Z,59.01
2018-07-17T04:55:30.179Z,58.40
2018-07-17T04:58:00.804Z,57.26
2018-07-17T05:00:31.553Z,57.14
2018-07-17T05:03:02.191Z,56.77
2018-07-17T05:05:32.899Z,55.57
2018-07-17T05:08:03.554Z,53.80
2018-07-17T05:10:34.231Z,53.38
2018-07-17T05:13:05.084Z,53.73
2018-07-17T05:15:35.722Z,53.47
2018-07-17T05:18:06.458Z,52.06
2018-07-17T05:20:37.166Z,52.02
2018-07-17T05:23:07.828Z,51.69
2018-07-17T05:25:38.535Z,53.02
2018-07-17T05:28:09.315Z,52.02
2018-07-17T05:30:40.285Z,51.77
2018-07-17T05:33:11.116Z,51.50
2018-07-17T05:35:41.880Z,50.80
2018-07-17T05:38:12.603Z,50.23
2018-07-17T05:40:43.403Z,50.89
2018-07-17T05:43:14.168Z,50.70
2018-07-17T05:45:45.008Z,50.97
2018-07-17T05:48:15.777Z,50.24
2018-07-17T05:50:46.565Z,49.52
2018-07-17T05:53:17.300Z,49.22
2018-07-17T05:55:48.236Z,49.19
2018-07-17T05:58:19.023Z,49.42
2018-07-17T06:00:49.848Z,49.12
2018-07-17T06:03:20.731Z,49.80
2018-07-17T06:05:51.604Z,49.34
2018-07-17T06:08:22.283Z,49.69
2018-07-17T06:10:53.040Z,49.79
2018-07-17T06:13:23.718Z,50.03
2018-07-17T06:15:54.510Z,50.57
2018-07-17T06:18:25.139Z,50.40
2018-07-17T06:20:55.835Z,50.23
2018-07-17T06:23:26.556Z,50.77
2018-07-17T06:25:57.285Z,50.62
2018-07-17T06:28:28.049Z,49.67
2018-07-17T06:30:58.759Z,49.93
2018-07-17T06:33:29.434Z,49.45
2018-07-17T06:36:00.080Z,49.39
2018-07-17T06:38:30.790Z,49.73
2018-07-17T06:41:01.550Z,49.21
2018-07-17T06:43:32.256Z,49.00
2018-07-17T06:46:02.963Z,48.84
2018-07-17T06:48:33.732Z,48.72
2018-07-17T06:51:04.490Z,49.00
2018-07-17T06:53:35.405Z,48.74
2018-07-17T06:56:06.235Z,48.42
2018-07-17T06:58:36.895Z,47.90
2018-07-17T07:01:07.594Z,47.29
2018-07-17T07:03:38.222Z,47.47
2018-07-17T07:06:08.951Z,46.90
2018-07-17T07:08:39.605Z,46.74
2018-07-17T07:11:10.407Z,47.16
2018-07-17T07:13:41.059Z,46.28
2018-07-17T07:16:11.713Z,46.32
2018-07-17T07:18:42.397Z,45.22
2018-07-17T07:21:13.140Z,45.49
2018-07-17T07:23:43.807Z,45.36
2018-07-17T07:26:14.633Z,44.69
2018-07-17T07:28:45.394Z,44.70
2018-07-17T07:31:16.124Z,43.81
2018-07-17T07:33:46.993Z,43.55
2018-07-17T07:36:17.737Z,42.54
2018-07-17T07:38:48.571Z,41.76
2018-07-17T07:41:19.286Z,41.42
2018-07-17T07:43:49.970Z,41.18
2018-07-17T07:46:21.657Z,40.93
2018-07-17T07:48:52.335Z,40.36
2018-07-17T07:51:23.016Z,40.11
2018-07-17T07:53:53.733Z,40.15
2018-07-17T07:56:24.532Z,38.49
2018-07-17T07:58:55.221Z,38.51
2018-07-17T08:01:25.879Z,38.18
2018-07-17T08:03:56.671Z,37.42
2018-07-17T08:06:27.321Z,36.75
2018-07-17T08:08:58.059Z,36.12
2018-07-17T08:11:28.894Z,35.58
2018-07-17T08:13:59.630Z,34.82
2018-07-17T08:16:30.838Z,34.32
2018-07-17T08:19:01.565Z,33.49
2018-07-17T08:21:32.372Z,33.66
2018-07-17T08:24:03.200Z,32.41
2018-07-17T08:26:33.985Z,33.02
2018-07-17T08:29:04.687Z,32.83
2018-07-17T08:31:35.536Z,33.16
2018-07-17T08:34:06.280Z,33.60
2018-07-17T08:36:36.987Z,33.87
2018-07-17T08:39:09.527Z,34.12
2018-07-17T08:41:40.198Z,34.51
2018-07-17T08:44:10.923Z,34.50
2018-07-17T08:46:41.610Z,34.73
2018-07-17T08:49:12.522Z,34.16
2018-07-17T08:51:43.084Z,34.78
2018-07-17T08:54:13.795Z,34.43
2018-07-17T08:56:44.427Z,35.02
2018-07-17T08:59:15.063Z,34.52
2018-07-17T09:01:45.739Z,34.99
2018-07-17T09:04:16.718Z,34.38
2018-07-17T09:06:47.482Z,34.98
2018-07-17T09:09:18.225Z,34.56
2018-07-17T09:11:49.083Z,34.84
2018-07-17T09:14:19.768Z,34.76
2018-07-17T09:16:50.580Z,33.79
2018-07-17T09:19:21.252Z,34.23
2018-07-17T09:21:52.080Z,34.20
2018-07-17T09:24:22.756Z,33.95
2018-07-17T09:26:53.663Z,35.36
2018-07-17T09:29:24.004Z,34.31
2018-07-17T09:31:54.548Z,34.77
2018-07-17T09:34:25.324Z,33.45
2018-07-17T09:36:56.090Z,32.65
2018-07-17T09:39:26.898Z,32.31
2018-07-17T09:41:57.605Z,32.78
2018-07-17T09:44:28.330Z,33.11
2018-07-17T09:46:59.076Z,32.26
2018-07-17T09:49:29.776Z,32.35
2018-07-17T09:52:00.079Z,32.51
2018-07-17T09:54:30.641Z,32.64
2018-07-17T09:57:01.319Z,33.67
2018-07-17T09:59:32.015Z,33.05
2018-07-17T10:02:07.908Z,32.62
2018-07-17T10:04:38.641Z,32.94
2018-07-17T10:07:09.314Z,33.92
2018-07-17T10:09:40.042Z,35.36
2018-07-17T10:12:10.677Z,35.97
2018-07-17T10:14:41.545Z,36.50
2018-07-17T10:17:12.337Z,35.89
2018-07-17T10:19:43.033Z,35.57
2018-07-17T10:22:13.727Z,34.70
2018-07-17T10:24:44.431Z,33.69
2018-07-17T10:27:15.205Z,33.30
2018-07-17T10:29:45.932Z,32.29
2018-07-17T10:32:16.585Z,31.71
2018-07-17T10:34:47.332Z,31.85
2018-07-17T10:37:18.033Z,32.59
2018-07-17T10:39:48.881Z,30.51
2018-07-17T10:42:19.752Z,31.36
2018-07-17T10:44:50.416Z,31.03
2018-07-17T10:47:21.068Z,32.04
2018-07-17T10:49:51.737Z,32.01
2018-07-17T10:52:22.462Z,32.05
2018-07-17T10:54:53.445Z,31.63
2018-07-17T10:57:24.134Z,30.33
2018-07-17T10:59:54.939Z,30.22
2018-07-17T11:02:25.593Z,29.65
2018-07-17T11:04:56.332Z,29.44
2018-07-17T11:07:27.021Z,28.52
2018-07-17T11:09:57.676Z,29.21
2018-07-17T11:12:28.311Z,28.96
2018-07-17T11:14:59.038Z,28.90
2018-07-17T11:17:29.713Z,27.93
2018-07-17T11:20:00.074Z,27.43
2018-07-17T11:22:30.702Z,26.59
2018-07-17T11:25:01.407Z,26.69
2018-07-17T11:27:32.125Z,25.94
2018-07-17T11:30:02.832Z,25.80
2018-07-17T11:32:33.492Z,24.73
2018-07-17T11:35:04.293Z,25.52
2018-07-17T11:37:35.340Z,25.38
2018-07-17T11:40:06.659Z,24.97
2018-07-17T11:42:37.334Z,25.10
2018-07-17T11:45:08.104Z,24.38
2018-07-17T11:47:38.792Z,24.90
2018-07-17T11:50:09.546Z,23.85
2018-07-17T11:52:40.179Z,24.20
2018-07-17T11:55:10.861Z,24.27
2018-07-17T11:57:41.539Z,24.89
2018-07-17T12:00:12.290Z,23.88
2018-07-17T12:02:42.991Z,25.21
2018-07-17T12:05:13.775Z,22.92
2018-07-17T12:07:44.463Z,21.83
2018-07-17T12:10:15.105Z,22.13
2018-07-17T12:12:45.975Z,22.14
2018-07-17T12:15:16.641Z,21.88
2018-07-17T12:17:47.459Z,22.70
2018-07-17T12:20:18.219Z,21.25
2018-07-17T12:22:49.578Z,21.77
2018-07-17T12:25:20.311Z,20.39
2018-07-17T12:27:51.048Z,20.63
2018-07-17T12:30:21.700Z,20.93
2018-07-17T12:32:52.493Z,21.08
2018-07-17T12:35:23.193Z,21.08
2018-07-17T12:37:54.024Z,20.39
2018-07-17T12:40:24.774Z,20.65
2018-07-17T12:42:55.644Z,21.15
2018-07-17T12:45:26.492Z,21.07
2018-07-17T12:47:57.283Z,21.36
2018-07-17T12:50:27.974Z,22.37
2018-07-17T12:52:59.122Z,21.00
2018-07-17T12:55:29.863Z,20.92
2018-07-17T12:58:00.539Z,21.95
2018-07-17T13:00:31.207Z,21.53
2018-07-17T13:03:01.920Z,21.76
2018-07-17T13:05:32.778Z,21.45
2018-07-17T13:08:03.493Z,21.36
2018-07-17T13:10:34.167Z,20.37
2018-07-17T13:13:04.858Z,21.37
2018-07-17T13:15:35.585Z,21.42
2018-07-17T13:18:06.328Z,21.62
2018-07-17T13:20:37.060Z,21.60
2018-07-17T13:23:07.726Z,21.23
2018-07-17T13:25:38.483Z,21.32
2018-07-17T13:28:09.198Z,21.39
2018-07-17T13:30:39.906Z,20.75
2018-07-17T13:33:10.661Z,21.29
2018-07-17T13:35:41.338Z,20.82
2018-07-17T13:38:12.011Z,21.78
2018-07-17T13:40:42.706Z,21.70
2018-07-17T13:43:13.350Z,21.56
2018-07-17T13:45:44.057Z,22.28
2018-07-17T13:48:14.716Z,21.72
2018-07-17T13:50:45.427Z,23.02
2018-07-17T13:53:16.097Z,22.57
2018-07-17T13:55:46.784Z,22.90
2018-07-17T13:58:17.429Z,22.48
2018-07-17T14:00:48.223Z,21.53
2018-07-17T14:03:19.149Z,21.53
2018-07-17T14:05:49.859Z,21.79
2018-07-17T14:08:20.507Z,21.50
2018-07-17T14:10:51.315Z,21.50
2018-07-17T14:13:22.090Z,22.06
2018-07-17T14:15:52.820Z,22.33
2018-07-17T14:18:23.539Z,23.53
2018-07-17T14:20:54.263Z,21.46
2018-07-17T14:23:25.004Z,22.07
2018-07-17T14:25:55.719Z,22.22
2018-07-17T14:28:26.446Z,22.85
2018-07-17T14:30:57.139Z,22.58
2018-07-17T14:36:28.932Z,21.65
2018-07-17T14:38:59.672Z,22.18
2018-07-17T14:41:30.452Z,22.84
2018-07-17T14:44:01.104Z,21.83
2018-07-17T14:46:31.780Z,22.65
2018-07-17T14:49:02.504Z,22.59
2018-07-17T14:51:33.219Z,22.32
2018-07-17T14:54:04.190Z,21.71
2018-07-17T14:56:34.912Z,21.74
2018-07-17T14:59:05.757Z,21.41
2018-07-17T15:01:36.416Z,21.37
2018-07-17T15:04:07.160Z,22.54
2018-07-17T15:06:37.831Z,21.94
2018-07-17T15:09:09.751Z,21.83
2018-07-17T15:11:40.441Z,22.37
2018-07-17T15:14:11.159Z,20.90
2018-07-17T15:16:41.816Z,21.09
2018-07-17T15:19:12.486Z,21.82
2018-07-17T15:21:43.163Z,21.20
2018-07-17T15:24:13.853Z,21.59
2018-07-17T15:26:44.511Z,22.49
2018-07-17T15:29:15.217Z,22.44
2018-07-17T15:31:45.966Z,22.34
2018-07-17T15:34:16.604Z,22.45
2018-07-17T15:36:47.394Z,23.83
2018-07-17T15:39:18.069Z,24.48
2018-07-17T15:41:48.848Z,24.14
2018-07-17T15:44:19.512Z,23.96
2018-07-17T15:46:50.144Z,23.49
2018-07-17T15:49:20.792Z,23.68
2018-07-17T15:51:51.465Z,24.29
2018-07-17T15:54:21.775Z,25.04
2018-07-17T15:56:52.308Z,25.01
2018-07-17T15:59:23.097Z,24.76
2018-07-17T16:01:53.809Z,25.52
2018-07-17T16:04:24.513Z,25.96
2018-07-17T16:06:55.231Z,25.70
2018-07-17T16:09:25.906Z,25.82
2018-07-17T16:12:27.414Z,26.02
2018-07-17T16:14:58.375Z,26.76
2018-07-17T16:17:29.062Z,26.71
2018-07-17T16:23:10.716Z,27.56
2018-07-17T16:25:49.696Z,27.73
2018-07-17T16:28:21.111Z,27.15
2018-07-17T16:30:52.327Z,27.39
2018-07-17T16:33:23.103Z,28.04
2018-07-17T16:35:54.318Z,28.40
2018-07-17T16:38:26.078Z,28.63
2018-07-17T16:40:56.998Z,28.93
2018-07-17T16:43:28.006Z,29.96
2018-07-17T16:45:59.549Z,30.12
2018-07-17T16:48:31.486Z,30.75
2018-07-17T16:51:02.346Z,30.60
2018-07-17T16:53:33.102Z,31.05
2018-07-17T16:56:03.799Z,31.38
2018-07-17T16:58:34.401Z,31.26
2018-07-17T17:01:05.093Z,31.00
2018-07-17T17:03:35.766Z,30.99
2018-07-17T17:06:06.473Z,31.22
2018-07-17T17:08:37.142Z,32.04
2018-07-17T17:11:07.905Z,31.83
2018-07-17T17:13:38.531Z,32.04
2018-07-17T17:16:09.418Z,31.95
2018-07-17T17:18:40.064Z,31.44
2018-07-17T17:21:10.882Z,32.04
2018-07-17T17:23:41.617Z,32.02
2018-07-17T17:26:12.403Z,31.54
2018-07-17T17:28:42.994Z,31.99
2018-07-17T17:31:13.698Z,31.16
2018-07-17T17:33:44.340Z,31.42
2018-07-17T17:36:15.065Z,31.18
2018-07-17T17:38:46.076Z,31.76
2018-07-17T17:41:16.739Z,31.90
2018-07-17T17:43:47.403Z,32.28
2018-07-17T17:46:18.081Z,32.12
2018-07-17T17:48:48.810Z,33.27
2018-07-17T17:51:19.457Z,32.62
2018-07-17T17:53:50.103Z,33.19
2018-07-17T17:56:20.764Z,32.87
2018-07-17T17:58:51.415Z,33.48
2018-07-17T18:01:22.681Z,33.03
2018-07-17T18:03:53.334Z,33.49
2018-07-17T18:06:24.004Z,33.69
2018-07-17T18:08:54.682Z,34.16
2018-07-17T18:11:25.311Z,34.43
2018-07-17T18:13:55.946Z,34.54
2018-07-17T18:16:32.954Z,34.92
2018-07-17T18:19:03.672Z,34.60
2018-07-17T18:21:34.451Z,34.71
2018-07-17T18:24:05.167Z,34.75
2018-07-17T18:26:35.856Z,35.19
2018-07-17T18:29:06.816Z,35.64
2018-07-17T18:31:37.554Z,35.91
2018-07-17T18:34:08.490Z,36.05
2018-07-17T18:36:39.583Z,35.87
2018-07-17T18:39:10.296Z,36.56
2018-07-17T18:41:40.715Z,36.47
2018-07-17T18:44:11.103Z,36.63
2018-07-17T18:46:42.034Z,37.20
2018-07-17T18:49:12.917Z,37.12
2018-07-17T18:51:43.787Z,38.17
2018-07-17T18:54:14.677Z,38.32
2018-07-17T18:56:45.891Z,38.84
2018-07-17T18:59:47.691Z,39.30
2018-07-17T19:02:18.323Z,39.99
2018-07-17T19:04:49.035Z,40.17
2018-07-17T19:07:19.695Z,40.15
2018-07-17T19:09:50.384Z,40.71
2018-07-17T19:12:21.180Z,41.35
2018-07-17T19:14:51.774Z,41.17
2018-07-17T19:17:22.487Z,41.93
2018-07-17T19:19:53.121Z,42.28
2018-07-17T19:22:23.858Z,41.96
2018-07-17T19:24:54.515Z,41.73
2018-07-17T19:27:25.364Z,42.32
2018-07-17T19:29:56.149Z,42.21
2018-07-17T19:32:26.822Z,42.49
2018-07-17T19:34:57.484Z,42.60
2018-07-17T19:40:29.776Z,42.50
2018-07-17T19:43:00.499Z,42.47
2018-07-17T19:45:31.527Z,42.97
2018-07-17T19:48:02.225Z,43.41
2018-07-17T19:50:32.972Z,42.94
2018-07-17T19:53:03.699Z,43.46
2018-07-17T19:55:34.465Z,43.33
2018-07-17T19:58:05.236Z,43.75
2018-07-17T20:00:36.278Z,43.39
2018-07-17T20:03:07.053Z,43.48
2018-07-17T20:05:37.750Z,43.20
2018-07-17T20:08:08.933Z,43.12
2018-07-17T20:10:39.655Z,43.13
2018-07-17T20:13:10.404Z,43.16
2018-07-17T20:15:41.859Z,43.39
2018-07-17T20:18:12.630Z,43.29
2018-07-17T20:20:43.398Z,43.71
2018-07-17T20:23:14.070Z,43.44
2018-07-17T20:25:45.131Z,43.28
2018-07-17T20:28:15.836Z,43.49
2018-07-17T20:30:46.588Z,43.27
2018-07-17T20:33:17.886Z,43.69
2018-07-17T20:35:48.694Z,43.66
2018-07-17T20:38:19.489Z,43.57
2018-07-17T20:40:50.212Z,43.85
2018-07-17T20:43:21.065Z,43.68
2018-07-17T20:45:51.755Z,43.42
2018-07-17T20:48:22.383Z,43.63
2018-07-17T20:50:53.119Z,43.62
2018-07-17T20:53:23.905Z,43.69
2018-07-17T20:55:54.671Z,43.51
2018-07-17T20:58:25.407Z,43.65
2018-07-17T21:00:56.071Z,44.03
2018-07-17T21:03:26.728Z,44.04
2018-07-17T21:05:57.421Z,43.94
2018-07-17T21:08:27.823Z,43.75
2018-07-17T21:10:58.436Z,43.73
2018-07-17T21:13:29.121Z,43.93
2018-07-17T21:15:59.836Z,44.09
2018-07-17T21:18:30.482Z,43.39
2018-07-17T21:21:01.213Z,43.42
2018-07-17T21:23:31.961Z,43.10
2018-07-17T21:26:02.334Z,43.78
2018-07-17T21:28:32.865Z,43.89
2018-07-17T21:31:03.688Z,43.84
2018-07-17T21:33:34.712Z,44.38
2018-07-17T21:36:05.689Z,44.24
2018-07-17T21:38:36.477Z,43.93
2018-07-17T21:41:07.251Z,44.63
2018-07-17T21:43:37.890Z,44.23
2018-07-17T21:46:08.659Z,44.18
2018-07-17T21:48:48.117Z,43.64
2018-07-17T21:51:18.795Z,43.92
2018-07-17T21:53:50.730Z,43.89
2018-07-17T21:56:21.498Z,44.66
2018-07-17T21:58:52.268Z,44.36
2018-07-17T22:01:23.102Z,44.35
2018-07-17T22:03:53.751Z,44.75
2018-07-17T22:06:24.799Z,44.85
2018-07-17T22:08:55.534Z,44.93
2018-07-17T22:11:26.364Z,44.97
2018-07-17T22:13:57.079Z,45.43
2018-07-17T22:16:27.849Z,45.40
2018-07-17T22:18:58.592Z,45.74
2018-07-17T22:21:29.355Z,45.86
2018-07-17T22:24:00.136Z,46.46
2018-07-17T22:26:30.857Z,46.39
2018-07-17T22:29:01.606Z,46.39
2018-07-17T22:31:32.365Z,46.52
2018-07-17T22:34:03.121Z,47.08
2018-07-17T22:36:33.915Z,47.39
2018-07-17T22:39:06.278Z,47.47
2018-07-17T22:41:37.148Z,47.34
2018-07-17T22:44:08.231Z,47.33
2018-07-17T22:46:39.000Z,47.89
2018-07-17T22:49:09.789Z,48.30
2018-07-17T22:51:40.518Z,48.48
2018-07-17T22:54:11.276Z,48.29
2018-07-17T22:56:42.002Z,48.85
2018-07-17T22:59:12.789Z,48.73
2018-07-17T23:01:43.611Z,49.10
2018-07-17T23:04:14.332Z,49.08
2018-07-17T23:06:45.237Z,49.23
2018-07-17T23:09:15.973Z,49.53
2018-07-17T23:11:46.788Z,49.33
2018-07-17T23:14:17.527Z,49.70
2018-07-17T23:16:48.409Z,50.00
2018-07-17T23:19:19.284Z,50.00
2018-07-17T23:21:50.103Z,50.29
2018-07-17T23:24:20.803Z,50.25
2018-07-17T23:26:52.510Z,50.85
2018-07-17T23:29:23.274Z,50.77
2018-07-17T23:31:54.027Z,50.85
2018-07-17T23:34:24.772Z,51.39
2018-07-17T23:36:55.511Z,51.10
2018-07-17T23:39:26.329Z,51.46
2018-07-17T23:41:57.056Z,51.89
2018-07-17T23:44:27.752Z,52.05
2018-07-17T23:46:58.481Z,52.30
2018-07-17T23:49:34.403Z,52.60
2018-07-17T23:52:04.901Z,52.63
2018-07-17T23:54:35.558Z,52.55
2018-07-17T23:57:06.481Z,52.81
2018-07-17T23:59:37.224Z,53.21
